sensor_id;sensor_type;location;lat;lon;timestamp;temperature;humidity
33093;DHT22;19456;46.104;12.908;2023-04-30T00:01:19;14.30;99.90
33093;DHT22;19456;46.104;12.908;2023-04-30T00:03:44;14.40;99.90
33093;DHT22;19456;46.104;12.908;2023-04-30T00:06:10;14.40;99.90
33093;DHT22;19456;46.104;12.908;2023-04-30T00:08:35;14.30;99.90
33093;DHT22;19456;46.104;12.908;2023-04-30T00:11:01;14.30;99.90
33093;DHT22;19456;46.104;12.908;2023-04-30T00:13:26;14.20;99.90
33093;DHT22;19456;46.104;12.908;2023-04-30T00:15:52;14.10;99.90
33093;DHT22;19456;46.104;12.908;2023-04-30T00:18:17;14.20;99.90
33093;DHT22;19456;46.104;12.908;2023-04-30T00:20:43;14.10;99.90
33093;DHT22;19456;46.104;12.908;2023-04-30T00:23:08;14.00;99.90
33093;DHT22;19456;46.104;12.908;2023-04-30T00:25:34;13.70;99.90
33093;DHT22;19456;46.104;12.908;2023-04-30T00:27:59;13.50;99.90
33093;DHT22;19456;46.104;12.908;2023-04-30T00:30:25;13.30;99.90
33093;DHT22;19456;46.104;12.908;2023-04-30T00:32:50;13.20;99.90
33093;DHT22;19456;46.104;12.908;2023-04-30T00:35:16;13.10;99.90
33093;DHT22;19456;46.104;12.908;2023-04-30T00:37:42;13.10;99.90
33093;DHT22;19456;46.104;12.908;2023-04-30T00:40:07;13.10;99.90
33093;DHT22;19456;46.104;12.908;2023-04-30T00:42:33;13.10;99.90
33093;DHT22;19456;46.104;12.908;2023-04-30T00:44:58;13.10;99.90
33093;DHT22;19456;46.104;12.908;2023-04-30T00:47:24;13.10;99.90
33093;DHT22;19456;46.104;12.908;2023-04-30T00:49:49;13.10;99.90
33093;DHT22;19456;46.104;12.908;2023-04-30T00:52:15;13.20;99.90
33093;DHT22;19456;46.104;12.908;2023-04-30T00:54:41;13.30;99.90
33093;DHT22;19456;46.104;12.908;2023-04-30T00:57:07;13.40;99.90
33093;DHT22;19456;46.104;12.908;2023-04-30T00:59:34;13.50;99.90
33093;DHT22;19456;46.104;12.908;2023-04-30T01:01:59;13.70;99.90
33093;DHT22;19456;46.104;12.908;2023-04-30T01:04:25;13.80;99.90
33093;DHT22;19456;46.104;12.908;2023-04-30T01:06:51;13.90;99.90
33093;DHT22;19456;46.104;12.908;2023-04-30T01:09:16;13.90;99.90
33093;DHT22;19456;46.104;12.908;2023-04-30T01:11:52;13.90;99.90
33093;DHT22;19456;46.104;12.908;2023-04-30T01:14:37;13.90;99.90
33093;DHT22;19456;46.104;12.908;2023-04-30T01:17:11;13.80;99.90
33093;DHT22;19456;46.104;12.908;2023-04-30T01:19:42;13.60;99.90
33093;DHT22;19456;46.104;12.908;2023-04-30T01:22:10;13.60;99.90
33093;DHT22;19456;46.104;12.908;2023-04-30T01:24:42;13.60;99.90
33093;DHT22;19456;46.104;12.908;2023-04-30T01:27:22;13.60;99.90
33093;DHT22;19456;46.104;12.908;2023-04-30T01:29:49;13.50;99.90
33093;DHT22;19456;46.104;12.908;2023-04-30T01:32:14;13.50;99.90
33093;DHT22;19456;46.104;12.908;2023-04-30T01:34:40;13.70;99.90
33093;DHT22;19456;46.104;12.908;2023-04-30T01:37:20;13.70;99.90
33093;DHT22;19456;46.104;12.908;2023-04-30T01:39:56;13.70;99.90
33093;DHT22;19456;46.104;12.908;2023-04-30T01:42:31;13.40;99.90
33093;DHT22;19456;46.104;12.908;2023-04-30T01:45:11;13.30;99.90
33093;DHT22;19456;46.104;12.908;2023-04-30T01:52:33;12.80;99.90
33093;DHT22;19456;46.104;12.908;2023-04-30T01:55:03;12.70;99.90
33093;DHT22;19456;46.104;12.908;2023-04-30T01:57:35;12.70;99.90
33093;DHT22;19456;46.104;12.908;2023-04-30T02:00:01;12.80;99.90
33093;DHT22;19456;46.104;12.908;2023-04-30T02:02:27;13.00;99.90
33093;DHT22;19456;46.104;12.908;2023-04-30T02:04:53;13.10;99.90
33093;DHT22;19456;46.104;12.908;2023-04-30T02:07:22;13.20;99.90
33093;DHT22;19456;46.104;12.908;2023-04-30T02:09:51;13.10;99.90
33093;DHT22;19456;46.104;12.908;2023-04-30T02:12:17;13.20;99.90
33093;DHT22;19456;46.104;12.908;2023-04-30T02:14:42;13.30;99.90
33093;DHT22;19456;46.104;12.908;2023-04-30T02:17:08;13.30;99.90
33093;DHT22;19456;46.104;12.908;2023-04-30T02:19:33;13.30;99.90
33093;DHT22;19456;46.104;12.908;2023-04-30T02:21:59;13.10;99.90
33093;DHT22;19456;46.104;12.908;2023-04-30T02:24:25;13.00;99.90
33093;DHT22;19456;46.104;12.908;2023-04-30T02:26:50;12.90;99.90
33093;DHT22;19456;46.104;12.908;2023-04-30T02:29:16;12.70;99.90
33093;DHT22;19456;46.104;12.908;2023-04-30T02:31:41;12.70;99.90
33093;DHT22;19456;46.104;12.908;2023-04-30T02:34:07;12.60;99.90
33093;DHT22;19456;46.104;12.908;2023-04-30T02:36:32;12.70;99.90
33093;DHT22;19456;46.104;12.908;2023-04-30T02:39:00;12.80;99.90
33093;DHT22;19456;46.104;12.908;2023-04-30T02:41:26;12.90;99.90
33093;DHT22;19456;46.104;12.908;2023-04-30T02:43:52;12.90;99.90
33093;DHT22;19456;46.104;12.908;2023-04-30T02:46:17;12.90;99.90
33093;DHT22;19456;46.104;12.908;2023-04-30T02:48:46;12.90;99.90
33093;DHT22;19456;46.104;12.908;2023-04-30T02:51:12;12.90;99.90
33093;DHT22;19456;46.104;12.908;2023-04-30T02:53:37;13.00;99.90
33093;DHT22;19456;46.104;12.908;2023-04-30T02:56:03;13.10;99.90
33093;DHT22;19456;46.104;12.908;2023-04-30T02:58:28;13.10;99.90
33093;DHT22;19456;46.104;12.908;2023-04-30T03:00:54;13.10;99.90
33093;DHT22;19456;46.104;12.908;2023-04-30T03:03:20;13.20;99.90
33093;DHT22;19456;46.104;12.908;2023-04-30T03:05:45;13.30;99.90
33093;DHT22;19456;46.104;12.908;2023-04-30T03:08:11;13.30;99.90
33093;DHT22;19456;46.104;12.908;2023-04-30T03:10:37;13.30;99.90
33093;DHT22;19456;46.104;12.908;2023-04-30T03:13:02;13.40;99.90
33093;DHT22;19456;46.104;12.908;2023-04-30T03:15:28;13.40;99.90
33093;DHT22;19456;46.104;12.908;2023-04-30T03:17:53;13.60;99.90
33093;DHT22;19456;46.104;12.908;2023-04-30T03:20:19;13.70;99.90
33093;DHT22;19456;46.104;12.908;2023-04-30T03:22:45;13.70;99.90
33093;DHT22;19456;46.104;12.908;2023-04-30T03:25:10;13.80;99.90
33093;DHT22;19456;46.104;12.908;2023-04-30T03:27:36;13.70;99.90
33093;DHT22;19456;46.104;12.908;2023-04-30T03:30:01;13.80;99.90
33093;DHT22;19456;46.104;12.908;2023-04-30T03:32:27;13.90;99.90
33093;DHT22;19456;46.104;12.908;2023-04-30T03:34:52;14.00;99.90
33093;DHT22;19456;46.104;12.908;2023-04-30T03:37:18;14.10;99.90
33093;DHT22;19456;46.104;12.908;2023-04-30T03:39:43;14.20;99.90
33093;DHT22;19456;46.104;12.908;2023-04-30T03:42:09;14.00;99.90
33093;DHT22;19456;46.104;12.908;2023-04-30T03:44:34;13.70;99.90
33093;DHT22;19456;46.104;12.908;2023-04-30T03:47:00;13.60;99.90
33093;DHT22;19456;46.104;12.908;2023-04-30T03:49:25;13.40;99.90
33093;DHT22;19456;46.104;12.908;2023-04-30T03:51:51;13.30;99.90
33093;DHT22;19456;46.104;12.908;2023-04-30T03:54:20;13.20;99.90
33093;DHT22;19456;46.104;12.908;2023-04-30T03:56:45;13.10;99.90
33093;DHT22;19456;46.104;12.908;2023-04-30T03:59:11;13.10;99.90
33093;DHT22;19456;46.104;12.908;2023-04-30T04:01:36;13.10;99.90
33093;DHT22;19456;46.104;12.908;2023-04-30T04:04:02;13.00;99.90
33093;DHT22;19456;46.104;12.908;2023-04-30T04:06:28;13.00;99.90
33093;DHT22;19456;46.104;12.908;2023-04-30T04:08:53;12.90;99.90
33093;DHT22;19456;46.104;12.908;2023-04-30T04:11:19;13.00;99.90
33093;DHT22;19456;46.104;12.908;2023-04-30T04:13:45;13.10;99.90
33093;DHT22;19456;46.104;12.908;2023-04-30T04:16:10;13.00;99.90
33093;DHT22;19456;46.104;12.908;2023-04-30T04:18:36;13.00;99.90
33093;DHT22;19456;46.104;12.908;2023-04-30T04:21:01;13.00;99.90
33093;DHT22;19456;46.104;12.908;2023-04-30T04:23:28;13.00;99.90
33093;DHT22;19456;46.104;12.908;2023-04-30T04:25:54;13.10;99.90
33093;DHT22;19456;46.104;12.908;2023-04-30T04:28:19;13.20;99.90
33093;DHT22;19456;46.104;12.908;2023-04-30T04:30:45;13.30;99.90
33093;DHT22;19456;46.104;12.908;2023-04-30T04:33:11;13.40;99.90
33093;DHT22;19456;46.104;12.908;2023-04-30T04:35:36;13.30;99.90
33093;DHT22;19456;46.104;12.908;2023-04-30T04:38:02;13.20;99.90
33093;DHT22;19456;46.104;12.908;2023-04-30T04:40:28;13.20;99.90
33093;DHT22;19456;46.104;12.908;2023-04-30T04:42:54;13.30;99.90
33093;DHT22;19456;46.104;12.908;2023-04-30T04:45:20;13.20;99.90
33093;DHT22;19456;46.104;12.908;2023-04-30T04:47:45;13.30;99.90
33093;DHT22;19456;46.104;12.908;2023-04-30T04:50:11;13.30;99.90
33093;DHT22;19456;46.104;12.908;2023-04-30T04:52:37;13.40;99.90
33093;DHT22;19456;46.104;12.908;2023-04-30T04:55:03;13.40;99.90
33093;DHT22;19456;46.104;12.908;2023-04-30T04:57:29;13.40;99.90
33093;DHT22;19456;46.104;12.908;2023-04-30T04:59:55;13.40;99.90
33093;DHT22;19456;46.104;12.908;2023-04-30T05:02:20;13.50;99.90
33093;DHT22;19456;46.104;12.908;2023-04-30T05:04:48;13.60;99.90
33093;DHT22;19456;46.104;12.908;2023-04-30T05:07:18;13.90;99.90
33093;DHT22;19456;46.104;12.908;2023-04-30T05:09:44;14.10;99.90
33093;DHT22;19456;46.104;12.908;2023-04-30T05:12:10;14.20;99.90
33093;DHT22;19456;46.104;12.908;2023-04-30T05:14:36;14.30;99.90
33093;DHT22;19456;46.104;12.908;2023-04-30T05:17:01;14.20;99.90
33093;DHT22;19456;46.104;12.908;2023-04-30T05:19:27;14.20;99.90
33093;DHT22;19456;46.104;12.908;2023-04-30T05:21:52;14.30;99.90
33093;DHT22;19456;46.104;12.908;2023-04-30T05:24:18;14.30;99.90
33093;DHT22;19456;46.104;12.908;2023-04-30T05:26:44;14.40;99.90
33093;DHT22;19456;46.104;12.908;2023-04-30T05:29:09;14.50;99.90
33093;DHT22;19456;46.104;12.908;2023-04-30T05:31:36;14.50;99.90
33093;DHT22;19456;46.104;12.908;2023-04-30T05:34:01;14.50;99.90
33093;DHT22;19456;46.104;12.908;2023-04-30T05:36:27;14.50;99.90
33093;DHT22;19456;46.104;12.908;2023-04-30T05:38:53;14.50;99.90
33093;DHT22;19456;46.104;12.908;2023-04-30T05:41:19;14.60;99.90
33093;DHT22;19456;46.104;12.908;2023-04-30T05:43:45;14.70;99.90
33093;DHT22;19456;46.104;12.908;2023-04-30T05:46:11;14.80;99.90
33093;DHT22;19456;46.104;12.908;2023-04-30T05:48:37;14.80;99.90
33093;DHT22;19456;46.104;12.908;2023-04-30T05:51:03;14.90;99.90
33093;DHT22;19456;46.104;12.908;2023-04-30T05:53:30;14.90;99.90
33093;DHT22;19456;46.104;12.908;2023-04-30T05:55:56;15.00;99.90
33093;DHT22;19456;46.104;12.908;2023-04-30T05:58:21;15.20;99.90
33093;DHT22;19456;46.104;12.908;2023-04-30T06:00:47;15.20;99.90
33093;DHT22;19456;46.104;12.908;2023-04-30T06:03:13;15.20;99.90
33093;DHT22;19456;46.104;12.908;2023-04-30T06:05:39;15.20;99.90
33093;DHT22;19456;46.104;12.908;2023-04-30T06:08:05;15.20;99.90
33093;DHT22;19456;46.104;12.908;2023-04-30T06:10:31;15.20;99.90
33093;DHT22;19456;46.104;12.908;2023-04-30T06:12:56;15.20;99.90
33093;DHT22;19456;46.104;12.908;2023-04-30T06:15:22;15.20;99.90
33093;DHT22;19456;46.104;12.908;2023-04-30T06:17:47;15.20;99.90
33093;DHT22;19456;46.104;12.908;2023-04-30T06:20:13;15.20;99.90
33093;DHT22;19456;46.104;12.908;2023-04-30T06:22:40;15.30;99.90
33093;DHT22;19456;46.104;12.908;2023-04-30T06:25:06;15.50;99.90
33093;DHT22;19456;46.104;12.908;2023-04-30T06:27:31;15.60;99.90
33093;DHT22;19456;46.104;12.908;2023-04-30T06:29:57;15.80;99.90
33093;DHT22;19456;46.104;12.908;2023-04-30T06:32:25;15.90;99.90
33093;DHT22;19456;46.104;12.908;2023-04-30T06:34:50;15.90;99.90
33093;DHT22;19456;46.104;12.908;2023-04-30T06:37:16;15.90;99.90
33093;DHT22;19456;46.104;12.908;2023-04-30T06:39:41;16.10;99.90
33093;DHT22;19456;46.104;12.908;2023-04-30T06:42:07;16.10;99.90
33093;DHT22;19456;46.104;12.908;2023-04-30T06:44:33;16.30;99.90
33093;DHT22;19456;46.104;12.908;2023-04-30T06:46:58;16.50;99.90
33093;DHT22;19456;46.104;12.908;2023-04-30T06:49:24;16.60;99.90
33093;DHT22;19456;46.104;12.908;2023-04-30T06:51:49;16.80;99.90
33093;DHT22;19456;46.104;12.908;2023-04-30T06:54:15;17.00;99.90
33093;DHT22;19456;46.104;12.908;2023-04-30T06:56:40;17.10;99.90
33093;DHT22;19456;46.104;12.908;2023-04-30T06:59:08;17.20;99.90
33093;DHT22;19456;46.104;12.908;2023-04-30T07:01:33;17.20;99.90
33093;DHT22;19456;46.104;12.908;2023-04-30T07:03:59;17.30;99.90
33093;DHT22;19456;46.104;12.908;2023-04-30T07:06:25;17.40;99.90
33093;DHT22;19456;46.104;12.908;2023-04-30T07:08:50;17.40;99.90
33093;DHT22;19456;46.104;12.908;2023-04-30T07:11:16;17.40;99.90
33093;DHT22;19456;46.104;12.908;2023-04-30T07:13:42;17.50;99.90
33093;DHT22;19456;46.104;12.908;2023-04-30T07:16:07;17.60;99.90
33093;DHT22;19456;46.104;12.908;2023-04-30T07:18:35;17.50;99.90
33093;DHT22;19456;46.104;12.908;2023-04-30T07:21:00;17.50;99.90
33093;DHT22;19456;46.104;12.908;2023-04-30T07:23:26;17.50;99.90
33093;DHT22;19456;46.104;12.908;2023-04-30T07:25:51;17.50;99.90
33093;DHT22;19456;46.104;12.908;2023-04-30T07:28:17;17.40;99.90
33093;DHT22;19456;46.104;12.908;2023-04-30T07:30:42;17.40;99.90
33093;DHT22;19456;46.104;12.908;2023-04-30T07:33:08;17.40;99.90
33093;DHT22;19456;46.104;12.908;2023-04-30T07:35:33;17.50;99.90
33093;DHT22;19456;46.104;12.908;2023-04-30T07:37:59;17.50;99.90
33093;DHT22;19456;46.104;12.908;2023-04-30T07:40:25;17.60;99.90
33093;DHT22;19456;46.104;12.908;2023-04-30T07:42:50;17.60;99.90
33093;DHT22;19456;46.104;12.908;2023-04-30T07:45:16;17.70;99.90
33093;DHT22;19456;46.104;12.908;2023-04-30T07:47:42;17.80;99.90
33093;DHT22;19456;46.104;12.908;2023-04-30T07:50:08;17.90;99.90
33093;DHT22;19456;46.104;12.908;2023-04-30T07:52:34;17.90;99.90
33093;DHT22;19456;46.104;12.908;2023-04-30T07:55:00;17.80;99.90
33093;DHT22;19456;46.104;12.908;2023-04-30T07:57:25;17.80;99.90
33093;DHT22;19456;46.104;12.908;2023-04-30T07:59:52;17.90;99.90
33093;DHT22;19456;46.104;12.908;2023-04-30T08:02:18;17.90;99.90
33093;DHT22;19456;46.104;12.908;2023-04-30T08:04:43;17.90;99.90
33093;DHT22;19456;46.104;12.908;2023-04-30T08:07:09;17.80;99.90
33093;DHT22;19456;46.104;12.908;2023-04-30T08:09:34;17.70;99.90
33093;DHT22;19456;46.104;12.908;2023-04-30T08:12:00;17.70;99.90
33093;DHT22;19456;46.104;12.908;2023-04-30T08:14:26;17.70;99.90
33093;DHT22;19456;46.104;12.908;2023-04-30T08:16:51;17.80;99.90
33093;DHT22;19456;46.104;12.908;2023-04-30T08:19:17;17.90;99.90
33093;DHT22;19456;46.104;12.908;2023-04-30T08:21:42;18.00;99.90
33093;DHT22;19456;46.104;12.908;2023-04-30T08:24:08;18.10;99.90
33093;DHT22;19456;46.104;12.908;2023-04-30T08:26:34;18.20;99.90
33093;DHT22;19456;46.104;12.908;2023-04-30T08:28:59;18.20;99.90
33093;DHT22;19456;46.104;12.908;2023-04-30T08:31:25;18.20;99.90
33093;DHT22;19456;46.104;12.908;2023-04-30T08:33:50;18.00;99.90
33093;DHT22;19456;46.104;12.908;2023-04-30T08:36:16;17.90;99.90
33093;DHT22;19456;46.104;12.908;2023-04-30T08:38:41;17.70;99.90
33093;DHT22;19456;46.104;12.908;2023-04-30T08:41:10;17.60;99.90
33093;DHT22;19456;46.104;12.908;2023-04-30T08:43:36;17.60;99.90
33093;DHT22;19456;46.104;12.908;2023-04-30T08:46:05;17.70;99.90
33093;DHT22;19456;46.104;12.908;2023-04-30T08:48:31;17.70;99.90
33093;DHT22;19456;46.104;12.908;2023-04-30T08:51:00;17.90;99.90
33093;DHT22;19456;46.104;12.908;2023-04-30T08:53:26;18.20;99.90
33093;DHT22;19456;46.104;12.908;2023-04-30T08:55:52;18.30;99.90
33093;DHT22;19456;46.104;12.908;2023-04-30T08:58:17;18.50;99.90
33093;DHT22;19456;46.104;12.908;2023-04-30T09:00:43;18.70;99.90
33093;DHT22;19456;46.104;12.908;2023-04-30T09:03:09;18.70;99.90
33093;DHT22;19456;46.104;12.908;2023-04-30T09:05:35;18.50;99.90
33093;DHT22;19456;46.104;12.908;2023-04-30T09:08:02;18.70;99.90
33093;DHT22;19456;46.104;12.908;2023-04-30T09:10:30;18.90;99.90
33093;DHT22;19456;46.104;12.908;2023-04-30T09:13:03;18.90;99.90
33093;DHT22;19456;46.104;12.908;2023-04-30T09:15:29;19.10;99.90
33093;DHT22;19456;46.104;12.908;2023-04-30T09:20:30;19.30;99.90
33093;DHT22;19456;46.104;12.908;2023-04-30T09:23:04;19.40;99.90
33093;DHT22;19456;46.104;12.908;2023-04-30T09:25:36;19.70;99.90
33093;DHT22;19456;46.104;12.908;2023-04-30T09:28:12;19.80;99.90
33093;DHT22;19456;46.104;12.908;2023-04-30T09:30:40;20.10;99.90
33093;DHT22;19456;46.104;12.908;2023-04-30T09:33:06;20.20;99.90
33093;DHT22;19456;46.104;12.908;2023-04-30T09:35:35;20.30;99.90
33093;DHT22;19456;46.104;12.908;2023-04-30T09:38:01;20.20;99.90
33093;DHT22;19456;46.104;12.908;2023-04-30T09:42:59;20.30;99.90
33093;DHT22;19456;46.104;12.908;2023-04-30T09:45:24;20.40;99.90
33093;DHT22;19456;46.104;12.908;2023-04-30T09:47:51;20.40;99.90
33093;DHT22;19456;46.104;12.908;2023-04-30T09:50:17;20.50;99.90
33093;DHT22;19456;46.104;12.908;2023-04-30T09:52:47;20.60;99.90
33093;DHT22;19456;46.104;12.908;2023-04-30T09:55:16;20.80;99.90
33093;DHT22;19456;46.104;12.908;2023-04-30T09:57:42;20.90;99.90
33093;DHT22;19456;46.104;12.908;2023-04-30T10:00:08;20.90;99.90
33093;DHT22;19456;46.104;12.908;2023-04-30T10:02:34;21.00;99.90
33093;DHT22;19456;46.104;12.908;2023-04-30T10:05:01;21.20;99.90
33093;DHT22;19456;46.104;12.908;2023-04-30T10:07:30;21.30;99.90
33093;DHT22;19456;46.104;12.908;2023-04-30T10:10:02;21.50;99.90
33093;DHT22;19456;46.104;12.908;2023-04-30T10:14:58;22.00;99.90
33093;DHT22;19456;46.104;12.908;2023-04-30T10:17:27;22.20;99.90
33093;DHT22;19456;46.104;12.908;2023-04-30T10:19:56;22.40;99.90
33093;DHT22;19456;46.104;12.908;2023-04-30T10:22:23;22.60;99.90
33093;DHT22;19456;46.104;12.908;2023-04-30T10:24:48;22.70;99.90
33093;DHT22;19456;46.104;12.908;2023-04-30T10:27:14;23.00;99.90
33093;DHT22;19456;46.104;12.908;2023-04-30T10:29:40;23.00;99.90
33093;DHT22;19456;46.104;12.908;2023-04-30T10:32:06;23.00;99.90
33093;DHT22;19456;46.104;12.908;2023-04-30T10:34:37;23.20;99.90
33093;DHT22;19456;46.104;12.908;2023-04-30T10:37:08;23.30;99.90
33093;DHT22;19456;46.104;12.908;2023-04-30T10:39:36;23.40;99.90
33093;DHT22;19456;46.104;12.908;2023-04-30T10:42:05;23.40;99.90
33093;DHT22;19456;46.104;12.908;2023-04-30T10:44:31;23.50;99.90
33093;DHT22;19456;46.104;12.908;2023-04-30T10:47:01;23.70;99.90
33093;DHT22;19456;46.104;12.908;2023-04-30T10:49:27;23.80;99.90
33093;DHT22;19456;46.104;12.908;2023-04-30T10:51:53;24.10;99.90
33093;DHT22;19456;46.104;12.908;2023-04-30T10:54:22;24.20;99.90
33093;DHT22;19456;46.104;12.908;2023-04-30T10:56:49;24.30;99.90
33093;DHT22;19456;46.104;12.908;2023-04-30T10:59:19;24.40;99.90
33093;DHT22;19456;46.104;12.908;2023-04-30T11:01:55;24.00;99.90
33093;DHT22;19456;46.104;12.908;2023-04-30T11:04:21;23.80;99.90
33093;DHT22;19456;46.104;12.908;2023-04-30T11:09:18;23.70;99.90
33093;DHT22;19456;46.104;12.908;2023-04-30T11:11:44;23.80;99.90
33093;DHT22;19456;46.104;12.908;2023-04-30T11:14:11;24.20;99.90
33093;DHT22;19456;46.104;12.908;2023-04-30T11:16:36;24.30;99.90
33093;DHT22;19456;46.104;12.908;2023-04-30T11:19:09;24.60;99.90
33093;DHT22;19456;46.104;12.908;2023-04-30T11:21:50;24.40;99.90
33093;DHT22;19456;46.104;12.908;2023-04-30T11:27:11;24.40;99.90
33093;DHT22;19456;46.104;12.908;2023-04-30T11:29:37;24.10;99.90
33093;DHT22;19456;46.104;12.908;2023-04-30T11:32:04;24.30;99.90
33093;DHT22;19456;46.104;12.908;2023-04-30T11:34:30;24.80;99.90
33093;DHT22;19456;46.104;12.908;2023-04-30T11:36:57;25.70;99.90
33093;DHT22;19456;46.104;12.908;2023-04-30T11:39:23;26.60;99.90
33093;DHT22;19456;46.104;12.908;2023-04-30T11:41:49;27.00;99.90
33093;DHT22;19456;46.104;12.908;2023-04-30T11:44:22;27.80;99.90
33093;DHT22;19456;46.104;12.908;2023-04-30T11:46:48;28.00;99.60
33093;DHT22;19456;46.104;12.908;2023-04-30T11:49:13;27.50;96.50
33093;DHT22;19456;46.104;12.908;2023-04-30T11:51:39;26.70;96.40
33093;DHT22;19456;46.104;12.908;2023-04-30T11:54:06;26.20;97.80
33093;DHT22;19456;46.104;12.908;2023-04-30T11:56:32;26.50;96.90
33093;DHT22;19456;46.104;12.908;2023-04-30T11:59:07;26.30;96.80
33093;DHT22;19456;46.104;12.908;2023-04-30T12:01:33;26.60;94.40
33093;DHT22;19456;46.104;12.908;2023-04-30T12:04:01;26.90;93.60
33093;DHT22;19456;46.104;12.908;2023-04-30T12:06:28;27.00;94.70
33093;DHT22;19456;46.104;12.908;2023-04-30T12:08:56;27.20;93.60
33093;DHT22;19456;46.104;12.908;2023-04-30T12:11:22;27.70;94.10
33093;DHT22;19456;46.104;12.908;2023-04-30T12:13:53;28.30;93.40
33093;DHT22;19456;46.104;12.908;2023-04-30T12:16:18;28.30;92.60
33093;DHT22;19456;46.104;12.908;2023-04-30T12:18:44;28.10;91.50
33093;DHT22;19456;46.104;12.908;2023-04-30T12:21:10;27.60;90.70
33093;DHT22;19456;46.104;12.908;2023-04-30T12:23:36;27.00;91.10
33093;DHT22;19456;46.104;12.908;2023-04-30T12:26:01;26.70;93.30
33093;DHT22;19456;46.104;12.908;2023-04-30T12:28:27;26.60;93.90
33093;DHT22;19456;46.104;12.908;2023-04-30T12:30:53;26.60;94.40
33093;DHT22;19456;46.104;12.908;2023-04-30T12:33:18;26.50;94.10
33093;DHT22;19456;46.104;12.908;2023-04-30T12:35:44;26.00;93.80
33093;DHT22;19456;46.104;12.908;2023-04-30T12:38:09;25.60;94.50
33093;DHT22;19456;46.104;12.908;2023-04-30T12:40:35;25.60;94.80
33093;DHT22;19456;46.104;12.908;2023-04-30T12:43:05;25.50;95.00
33093;DHT22;19456;46.104;12.908;2023-04-30T12:48:12;25.20;95.60
33093;DHT22;19456;46.104;12.908;2023-04-30T12:50:38;25.00;95.50
33093;DHT22;19456;46.104;12.908;2023-04-30T12:53:04;24.70;94.50
33093;DHT22;19456;46.104;12.908;2023-04-30T12:55:29;24.70;94.80
33093;DHT22;19456;46.104;12.908;2023-04-30T12:58:05;25.80;93.20
33093;DHT22;19456;46.104;12.908;2023-04-30T13:03:09;27.30;92.30
33093;DHT22;19456;46.104;12.908;2023-04-30T13:05:35;27.50;91.40
33093;DHT22;19456;46.104;12.908;2023-04-30T13:08:01;27.60;90.60
33093;DHT22;19456;46.104;12.908;2023-04-30T13:10:28;28.00;90.80
33093;DHT22;19456;46.104;12.908;2023-04-30T13:12:53;28.40;89.60
33093;DHT22;19456;46.104;12.908;2023-04-30T13:15:19;27.60;90.40
33093;DHT22;19456;46.104;12.908;2023-04-30T13:17:45;26.60;91.30
33093;DHT22;19456;46.104;12.908;2023-04-30T13:20:10;26.10;92.40
33093;DHT22;19456;46.104;12.908;2023-04-30T13:22:36;26.00;92.70
33093;DHT22;19456;46.104;12.908;2023-04-30T13:25:02;27.10;91.80
33093;DHT22;19456;46.104;12.908;2023-04-30T13:27:27;27.70;92.70
33093;DHT22;19456;46.104;12.908;2023-04-30T13:29:53;28.50;91.60
33093;DHT22;19456;46.104;12.908;2023-04-30T13:32:18;28.60;90.80
33093;DHT22;19456;46.104;12.908;2023-04-30T13:34:44;27.80;91.30
33093;DHT22;19456;46.104;12.908;2023-04-30T13:37:10;27.30;92.30
33093;DHT22;19456;46.104;12.908;2023-04-30T13:39:35;27.00;93.10
33093;DHT22;19456;46.104;12.908;2023-04-30T13:42:01;26.50;93.40
33093;DHT22;19456;46.104;12.908;2023-04-30T13:44:26;26.40;93.60
33093;DHT22;19456;46.104;12.908;2023-04-30T13:46:52;26.00;93.60
33093;DHT22;19456;46.104;12.908;2023-04-30T13:49:17;25.60;93.80
33093;DHT22;19456;46.104;12.908;2023-04-30T13:51:43;25.40;93.90
33093;DHT22;19456;46.104;12.908;2023-04-30T13:54:08;25.30;94.00
33093;DHT22;19456;46.104;12.908;2023-04-30T13:56:34;25.30;94.60
33093;DHT22;19456;46.104;12.908;2023-04-30T13:59:00;25.00;94.70
33093;DHT22;19456;46.104;12.908;2023-04-30T14:01:27;24.90;95.50
33093;DHT22;19456;46.104;12.908;2023-04-30T14:03:52;24.90;95.10
33093;DHT22;19456;46.104;12.908;2023-04-30T14:06:18;24.90;95.20
33093;DHT22;19456;46.104;12.908;2023-04-30T14:08:43;25.00;95.30
33093;DHT22;19456;46.104;12.908;2023-04-30T14:11:09;25.00;95.60
33093;DHT22;19456;46.104;12.908;2023-04-30T14:13:35;24.80;95.30
33093;DHT22;19456;46.104;12.908;2023-04-30T14:16:00;24.10;95.80
33093;DHT22;19456;46.104;12.908;2023-04-30T14:18:26;23.90;96.40
33093;DHT22;19456;46.104;12.908;2023-04-30T14:20:52;23.90;97.70
33093;DHT22;19456;46.104;12.908;2023-04-30T14:23:17;24.00;97.60
33093;DHT22;19456;46.104;12.908;2023-04-30T14:25:43;23.90;98.20
33093;DHT22;19456;46.104;12.908;2023-04-30T14:28:08;23.90;98.10
33093;DHT22;19456;46.104;12.908;2023-04-30T14:30:34;24.00;98.00
33093;DHT22;19456;46.104;12.908;2023-04-30T14:32:59;24.10;97.80
33093;DHT22;19456;46.104;12.908;2023-04-30T14:35:25;24.20;97.90
33093;DHT22;19456;46.104;12.908;2023-04-30T14:37:51;24.20;97.40
33093;DHT22;19456;46.104;12.908;2023-04-30T14:40:16;24.10;97.80
33093;DHT22;19456;46.104;12.908;2023-04-30T14:42:43;24.30;97.70
33093;DHT22;19456;46.104;12.908;2023-04-30T14:45:09;24.30;97.80
33093;DHT22;19456;46.104;12.908;2023-04-30T14:47:34;24.20;98.10
33093;DHT22;19456;46.104;12.908;2023-04-30T14:50:00;24.40;97.70
33093;DHT22;19456;46.104;12.908;2023-04-30T14:52:26;24.50;97.80
33093;DHT22;19456;46.104;12.908;2023-04-30T14:54:52;24.90;97.10
33093;DHT22;19456;46.104;12.908;2023-04-30T14:57:18;25.50;97.60
33093;DHT22;19456;46.104;12.908;2023-04-30T14:59:43;26.20;96.80
33093;DHT22;19456;46.104;12.908;2023-04-30T15:02:09;26.60;96.00
33093;DHT22;19456;46.104;12.908;2023-04-30T15:04:35;26.80;95.10
33093;DHT22;19456;46.104;12.908;2023-04-30T15:07:01;26.70;94.40
33093;DHT22;19456;46.104;12.908;2023-04-30T15:09:26;26.60;93.60
33093;DHT22;19456;46.104;12.908;2023-04-30T15:11:53;27.30;93.70
33093;DHT22;19456;46.104;12.908;2023-04-30T15:14:18;28.30;92.10
33093;DHT22;19456;46.104;12.908;2023-04-30T15:16:44;28.10;91.20
33093;DHT22;19456;46.104;12.908;2023-04-30T15:19:09;27.90;91.00
33093;DHT22;19456;46.104;12.908;2023-04-30T15:21:35;28.00;90.60
33093;DHT22;19456;46.104;12.908;2023-04-30T15:24:01;28.30;90.90
33093;DHT22;19456;46.104;12.908;2023-04-30T15:26:27;29.00;90.10
33093;DHT22;19456;46.104;12.908;2023-04-30T15:28:53;29.00;90.10
33093;DHT22;19456;46.104;12.908;2023-04-30T15:31:19;28.90;89.40
33093;DHT22;19456;46.104;12.908;2023-04-30T15:33:44;28.60;88.80